createdAt,value
2022-12-24T00:00:45.548Z,0.70
2022-12-24T00:02:07.694Z,0.70
2022-12-24T00:03:30.030Z,0.70
2022-12-24T00:04:58.711Z,0.60
2022-12-24T00:06:24.082Z,0.60
2022-12-24T00:07:46.156Z,0.70
2022-12-24T00:09:09.966Z,0.70
2022-12-24T00:10:31.996Z,0.60
2022-12-24T00:11:54.062Z,0.60
2022-12-24T00:13:16.124Z,0.60
2022-12-24T00:14:38.215Z,0.70
2022-12-24T00:16:00.916Z,0.70
2022-12-24T00:17:23.022Z,0.60
2022-12-24T00:18:46.585Z,0.70
2022-12-24T00:20:09.692Z,0.60
2022-12-24T00:21:31.739Z,0.70
2022-12-24T00:22:53.772Z,0.70
2022-12-24T00:24:15.833Z,0.80
2022-12-24T00:25:37.914Z,0.70
2022-12-24T00:27:00.008Z,0.70
2022-12-24T00:28:22.587Z,0.70
2022-12-24T00:29:44.668Z,0.70
2022-12-24T00:31:15.748Z,0.70
2022-12-24T00:32:38.737Z,0.70
2022-12-24T00:34:00.877Z,0.70
2022-12-24T00:35:23.513Z,0.70
2022-12-24T00:36:45.712Z,0.70
2022-12-24T00:38:08.632Z,0.70
2022-12-24T00:39:31.147Z,0.70
2022-12-24T00:41:01.693Z,0.70
2022-12-24T00:42:23.757Z,0.80
2022-12-24T00:43:45.814Z,0.90
2022-12-24T00:45:08.623Z,0.90
2022-12-24T00:46:32.680Z,0.90
2022-12-24T00:47:54.967Z,0.90
2022-12-24T00:49:17.476Z,0.90
2022-12-24T00:50:39.529Z,0.90
2022-12-24T00:52:03.105Z,0.80
2022-12-24T00:53:25.203Z,0.90
2022-12-24T00:54:47.264Z,0.80
2022-12-24T00:56:09.393Z,0.90
2022-12-24T00:57:31.556Z,0.90
2022-12-24T00:58:54.699Z,0.90
2022-12-24T01:00:17.869Z,0.90
2022-12-24T01:01:40.017Z,0.90
2022-12-24T01:03:02.347Z,0.90
2022-12-24T01:04:43.230Z,0.90
2022-12-24T01:06:10.896Z,0.90
2022-12-24T01:07:32.962Z,0.80
2022-12-24T01:08:55.031Z,0.80
2022-12-24T01:10:19.834Z,0.80
2022-12-24T01:11:41.976Z,0.80
2022-12-24T01:13:04.233Z,0.80
2022-12-24T01:14:26.361Z,0.80
2022-12-24T01:15:48.498Z,0.70
2022-12-24T01:17:10.922Z,0.70
2022-12-24T01:18:32.937Z,0.70
2022-12-24T01:19:54.976Z,0.60
2022-12-24T01:21:17.329Z,0.60
2022-12-24T01:22:39.434Z,0.60
2022-12-24T01:24:01.525Z,0.50
2022-12-24T01:25:23.594Z,0.50
2022-12-24T01:26:45.653Z,0.50
2022-12-24T01:28:07.767Z,0.50
2022-12-24T01:29:30.076Z,0.50
2022-12-24T01:30:52.196Z,0.50
2022-12-24T01:32:14.388Z,0.50
2022-12-24T01:33:36.457Z,0.50
2022-12-24T01:34:59.807Z,0.50
2022-12-24T01:36:21.851Z,0.40
2022-12-24T01:37:43.902Z,0.40
2022-12-24T01:39:05.970Z,0.40
2022-12-24T01:40:46.438Z,0.50
2022-12-24T01:42:41.972Z,0.50
2022-12-24T01:44:22.167Z,0.50
2022-12-24T01:45:49.137Z,0.50
2022-12-24T01:47:22.408Z,0.50
2022-12-24T01:48:48.604Z,0.50
2022-12-24T01:50:17.408Z,0.50
2022-12-24T01:51:46.273Z,0.50
2022-12-24T01:53:10.337Z,0.50
2022-12-24T01:54:37.327Z,0.50
2022-12-24T01:55:59.509Z,0.50
2022-12-24T01:57:27.410Z,0.50
2022-12-24T01:58:55.680Z,0.50
2022-12-24T02:00:18.024Z,0.50
2022-12-24T02:01:40.195Z,0.50
2022-12-24T02:03:02.646Z,0.60
2022-12-24T02:04:59.044Z,0.50
2022-12-24T02:06:22.685Z,0.50
2022-12-24T02:07:45.741Z,0.60
2022-12-24T02:09:07.880Z,0.60
2022-12-24T02:10:30.173Z,0.60
2022-12-24T02:11:52.648Z,0.60
2022-12-24T02:13:17.358Z,0.60
2022-12-24T02:14:39.465Z,0.60
2022-12-24T02:16:11.668Z,0.60
2022-12-24T02:18:01.649Z,0.60
2022-12-24T02:19:41.875Z,0.60
2022-12-24T02:21:15.631Z,0.60
2022-12-24T02:22:52.985Z,0.60
2022-12-24T02:24:35.764Z,0.60
2022-12-24T02:26:41.843Z,0.60
2022-12-24T02:28:25.158Z,0.60
2022-12-24T02:29:56.484Z,0.50
2022-12-24T02:31:43.603Z,0.50
2022-12-24T02:33:26.064Z,0.50
2022-12-24T02:34:51.565Z,0.50
2022-12-24T02:36:19.308Z,0.50
2022-12-24T02:37:47.447Z,0.50
2022-12-24T02:39:14.828Z,0.50
2022-12-24T02:40:42.943Z,0.50
2022-12-24T02:42:08.315Z,0.50
2022-12-24T02:43:35.797Z,0.50
2022-12-24T02:45:08.904Z,0.50
2022-12-24T02:46:32.503Z,0.50
2022-12-24T02:47:56.056Z,0.60
2022-12-24T02:49:18.081Z,0.60
2022-12-24T02:50:40.115Z,0.60
2022-12-24T02:52:02.183Z,0.60
2022-12-24T02:53:24.513Z,0.60
2022-12-24T02:54:46.574Z,0.60
2022-12-24T02:56:24.529Z,0.60
2022-12-24T02:57:54.421Z,0.60
2022-12-24T02:59:41.416Z,0.60
2022-12-24T03:01:16.583Z,0.60
2022-12-24T03:02:54.113Z,0.60
2022-12-24T03:04:40.816Z,0.60
2022-12-24T03:06:11.378Z,0.60
2022-12-24T03:07:42.906Z,0.60
2022-12-24T03:09:20.192Z,0.60
2022-12-24T03:11:02.534Z,0.60
2022-12-24T03:12:52.154Z,0.60
2022-12-24T03:14:16.314Z,0.60
2022-12-24T03:15:39.666Z,0.70
2022-12-24T03:17:02.879Z,0.70
2022-12-24T03:18:26.728Z,0.70
2022-12-24T03:19:49.456Z,0.70
2022-12-24T03:21:16.376Z,0.80
2022-12-24T03:22:39.650Z,0.80
2022-12-24T03:24:02.259Z,0.80
2022-12-24T03:25:27.048Z,0.80
2022-12-24T03:26:49.522Z,0.80
2022-12-24T03:28:16.799Z,0.90
2022-12-24T03:29:40.981Z,0.90
2022-12-24T03:31:08.309Z,0.90
2022-12-24T03:32:32.426Z,0.90
2022-12-24T03:33:54.573Z,0.90
2022-12-24T03:35:16.719Z,0.90
2022-12-24T03:36:38.972Z,1.00
2022-12-24T03:38:01.073Z,1.00
2022-12-24T03:39:23.737Z,1.00
2022-12-24T03:40:45.848Z,1.00
2022-12-24T03:42:07.874Z,1.00
2022-12-24T03:43:30.081Z,1.00
2022-12-24T03:44:52.182Z,1.00
2022-12-24T03:46:14.305Z,1.00
2022-12-24T03:47:36.391Z,1.00
2022-12-24T03:48:58.605Z,1.00
2022-12-24T03:50:20.826Z,1.00
2022-12-24T03:51:42.881Z,1.00
2022-12-24T03:53:04.953Z,1.00
2022-12-24T03:54:27.011Z,1.00
2022-12-24T03:55:49.052Z,1.00
2022-12-24T03:57:11.144Z,1.00
2022-12-24T03:58:33.164Z,1.00
2022-12-24T03:59:55.296Z,1.00
2022-12-24T04:01:18.386Z,1.00
2022-12-24T04:02:40.654Z,1.00
2022-12-24T04:04:02.906Z,1.00
2022-12-24T04:05:25.098Z,1.00
2022-12-24T04:06:47.303Z,1.00
2022-12-24T04:08:09.362Z,1.00
2022-12-24T04:09:31.926Z,1.00
2022-12-24T04:10:53.938Z,1.00
2022-12-24T04:12:15.956Z,1.00
2022-12-24T04:13:38.354Z,1.00
2022-12-24T04:15:00.396Z,1.00
2022-12-24T04:16:22.675Z,1.00
2022-12-24T04:17:44.724Z,1.00
2022-12-24T04:19:06.758Z,1.00
2022-12-24T04:20:28.797Z,1.00
2022-12-24T04:21:50.833Z,1.00
2022-12-24T04:23:12.847Z,1.00
2022-12-24T04:24:34.917Z,1.00
2022-12-24T04:25:58.868Z,1.00
2022-12-24T04:27:25.227Z,1.00
2022-12-24T04:28:50.368Z,1.00
2022-12-24T04:30:12.622Z,1.00
2022-12-24T04:31:34.761Z,1.00
2022-12-24T04:32:56.831Z,1.00
2022-12-24T04:34:18.880Z,1.00
2022-12-24T04:35:41.731Z,1.00
2022-12-24T04:37:04.428Z,1.00
2022-12-24T04:38:26.568Z,1.00
2022-12-24T04:39:48.687Z,1.00
2022-12-24T04:41:23.195Z,1.00
2022-12-24T04:42:46.260Z,1.00
2022-12-24T04:44:09.334Z,1.00
2022-12-24T04:45:32.144Z,1.00
2022-12-24T04:46:54.213Z,1.00
2022-12-24T04:48:16.278Z,1.00
2022-12-24T04:49:38.325Z,1.00
2022-12-24T04:51:05.377Z,1.00
2022-12-24T04:52:28.120Z,1.00
2022-12-24T04:53:50.243Z,1.00
2022-12-24T04:55:12.312Z,1.00
2022-12-24T04:56:34.507Z,1.00
2022-12-24T04:57:56.535Z,1.00
2022-12-24T04:59:18.547Z,1.00
2022-12-24T05:00:41.560Z,1.00
2022-12-24T05:02:04.027Z,1.00
2022-12-24T05:03:27.116Z,0.90
2022-12-24T05:04:49.212Z,0.90
2022-12-24T05:06:14.327Z,0.90
2022-12-24T05:07:36.390Z,0.90
2022-12-24T05:08:59.578Z,0.90
2022-12-24T05:10:22.120Z,0.90
2022-12-24T05:11:44.271Z,0.90
2022-12-24T05:13:06.314Z,0.90
2022-12-24T05:14:28.390Z,0.80
2022-12-24T05:15:50.528Z,0.80
2022-12-24T05:17:12.698Z,0.80
2022-12-24T05:18:34.959Z,0.80
2022-12-24T05:19:57.046Z,0.80
2022-12-24T05:21:22.178Z,0.80
2022-12-24T05:23:02.787Z,0.80
2022-12-24T05:24:43.543Z,0.80
2022-12-24T05:26:22.745Z,0.80
2022-12-24T05:27:50.901Z,0.80
2022-12-24T05:29:13.601Z,0.80
2022-12-24T05:30:35.698Z,0.80
2022-12-24T05:31:57.746Z,0.80
2022-12-24T05:33:19.777Z,0.80
2022-12-24T05:34:41.800Z,0.80
2022-12-24T05:36:04.020Z,0.80
2022-12-24T05:37:26.060Z,0.80
2022-12-24T05:38:48.158Z,0.80
2022-12-24T05:40:10.476Z,0.90
2022-12-24T05:41:32.843Z,0.90
2022-12-24T05:42:54.876Z,0.90
2022-12-24T05:44:17.384Z,0.90
2022-12-24T05:45:39.417Z,0.90
2022-12-24T05:47:01.457Z,0.90
2022-12-24T05:48:23.508Z,0.90
2022-12-24T05:49:45.520Z,0.90
2022-12-24T05:51:09.344Z,0.90
2022-12-24T05:52:31.409Z,0.90
2022-12-24T05:53:53.523Z,0.90
2022-12-24T05:55:15.623Z,1.00
2022-12-24T05:56:37.686Z,0.90
2022-12-24T05:57:59.898Z,0.90
2022-12-24T05:59:21.925Z,0.90
2022-12-24T06:00:43.981Z,0.90
2022-12-24T06:02:06.063Z,0.90
2022-12-24T06:03:29.197Z,0.90
2022-12-24T06:04:51.254Z,0.90
2022-12-24T06:06:17.659Z,1.00
2022-12-24T06:07:39.684Z,1.00
2022-12-24T06:09:01.880Z,1.00
2022-12-24T06:10:24.167Z,1.00
2022-12-24T06:11:46.318Z,1.00
2022-12-24T06:13:08.333Z,1.10
2022-12-24T06:14:30.429Z,1.10
2022-12-24T06:15:59.980Z,1.10
2022-12-24T06:17:22.106Z,1.10
2022-12-24T06:18:44.524Z,1.10
2022-12-24T06:20:07.310Z,1.10
2022-12-24T06:21:29.489Z,1.10
2022-12-24T06:22:51.580Z,1.20
2022-12-24T06:24:13.652Z,1.20
2022-12-24T06:25:35.726Z,1.20
2022-12-24T06:26:57.825Z,1.20
2022-12-24T06:28:20.213Z,1.20
2022-12-24T06:29:42.225Z,1.20
2022-12-24T06:31:05.746Z,1.20
2022-12-24T06:32:27.831Z,1.30
2022-12-24T06:33:51.165Z,1.30
2022-12-24T06:35:13.243Z,1.30
2022-12-24T06:36:35.267Z,1.30
2022-12-24T06:37:57.344Z,1.30
2022-12-24T06:39:19.445Z,1.30
2022-12-24T06:40:44.337Z,1.30
2022-12-24T06:42:06.461Z,1.40
2022-12-24T06:43:28.575Z,1.40
2022-12-24T06:44:50.587Z,1.40
2022-12-24T06:46:13.194Z,1.40
2022-12-24T06:47:35.621Z,1.40
2022-12-24T06:48:57.664Z,1.40
2022-12-24T06:50:19.821Z,1.40
2022-12-24T06:51:41.981Z,1.50
2022-12-24T06:53:04.007Z,1.50
2022-12-24T06:54:26.125Z,1.50
2022-12-24T06:55:48.191Z,1.50
2022-12-24T06:57:10.244Z,1.50
2022-12-24T06:58:34.784Z,1.50
2022-12-24T06:59:56.828Z,1.50
2022-12-24T07:01:20.655Z,1.60
2022-12-24T07:02:44.364Z,1.60
2022-12-24T07:04:06.514Z,1.60
2022-12-24T07:05:29.002Z,1.60
2022-12-24T07:06:51.046Z,1.60
2022-12-24T07:08:13.087Z,1.60
2022-12-24T07:09:35.158Z,1.60
2022-12-24T07:10:59.594Z,1.60
2022-12-24T07:12:21.698Z,1.60
2022-12-24T07:13:43.770Z,1.60
2022-12-24T07:15:06.348Z,1.60
2022-12-24T07:16:28.511Z,1.60
2022-12-24T07:17:50.665Z,1.60
2022-12-24T07:19:12.822Z,1.60
2022-12-24T07:20:35.088Z,1.60
2022-12-24T07:21:57.150Z,1.60
2022-12-24T07:23:19.281Z,1.70
2022-12-24T07:24:41.345Z,1.70
2022-12-24T07:26:05.456Z,1.70
2022-12-24T07:27:27.625Z,1.70
2022-12-24T07:28:49.650Z,1.70
2022-12-24T07:30:12.491Z,1.70
2022-12-24T07:31:34.600Z,1.70
2022-12-24T07:32:56.706Z,1.80
2022-12-24T07:34:18.755Z,1.80
2022-12-24T07:35:40.847Z,1.80
2022-12-24T07:37:02.917Z,1.80
2022-12-24T07:38:24.963Z,1.80
2022-12-24T07:39:47.076Z,1.80
2022-12-24T07:41:09.172Z,1.80
2022-12-24T07:42:31.252Z,1.80
2022-12-24T07:43:54.738Z,1.80
2022-12-24T07:45:16.885Z,1.80
2022-12-24T07:46:39.238Z,1.80
2022-12-24T07:48:01.329Z,1.80
2022-12-24T07:49:23.481Z,1.90
2022-12-24T07:50:45.577Z,1.90
2022-12-24T07:52:07.655Z,1.90
2022-12-24T07:53:30.384Z,1.90
2022-12-24T07:54:52.454Z,2.00
2022-12-24T07:56:15.756Z,2.00
2022-12-24T07:57:37.833Z,2.00
2022-12-24T07:58:59.921Z,2.00
2022-12-24T08:00:22.068Z,2.00
2022-12-24T08:01:44.326Z,2.10
2022-12-24T08:03:06.612Z,2.10
2022-12-24T08:04:32.477Z,2.20
2022-12-24T08:05:54.646Z,2.20
2022-12-24T08:07:16.702Z,2.30
2022-12-24T08:08:38.779Z,2.30
2022-12-24T08:10:00.958Z,2.30
2022-12-24T08:11:23.054Z,2.30
2022-12-24T08:12:45.705Z,2.30
2022-12-24T08:14:07.769Z,2.30
2022-12-24T08:15:29.862Z,2.30
2022-12-24T08:16:52.003Z,2.40
2022-12-24T08:18:14.082Z,2.40
2022-12-24T08:19:36.173Z,2.40
2022-12-24T08:20:58.300Z,2.40
2022-12-24T08:22:20.326Z,2.40
2022-12-24T08:23:42.387Z,2.50
2022-12-24T08:25:04.680Z,2.50
2022-12-24T08:26:26.723Z,2.50
2022-12-24T08:27:48.783Z,2.50
2022-12-24T08:29:11.891Z,2.50
2022-12-24T08:30:34.739Z,2.50
2022-12-24T08:31:56.864Z,2.60
2022-12-24T08:33:19.244Z,2.60
2022-12-24T08:34:41.415Z,2.60
2022-12-24T08:36:04.118Z,2.70
2022-12-24T08:37:26.285Z,2.70
2022-12-24T08:38:48.350Z,2.80
2022-12-24T08:40:11.084Z,2.80
2022-12-24T08:41:33.236Z,2.90
2022-12-24T08:42:55.436Z,2.90
2022-12-24T08:44:17.690Z,3.00
2022-12-24T08:45:41.071Z,3.00
2022-12-24T08:47:03.441Z,3.00
2022-12-24T08:48:25.498Z,3.10
2022-12-24T08:49:47.703Z,3.10
2022-12-24T08:51:11.497Z,3.10
2022-12-24T08:52:33.645Z,3.10
2022-12-24T08:53:55.724Z,3.20
2022-12-24T08:55:17.968Z,3.20
2022-12-24T08:56:40.247Z,3.20
2022-12-24T08:58:02.467Z,3.20
2022-12-24T08:59:24.941Z,3.20
2022-12-24T09:00:47.180Z,3.20
2022-12-24T09:02:09.965Z,3.20
2022-12-24T09:03:32.173Z,3.20
2022-12-24T09:04:54.435Z,3.20
2022-12-24T09:06:16.648Z,3.20
2022-12-24T09:07:38.708Z,3.30
2022-12-24T09:09:00.829Z,3.30
2022-12-24T09:10:23.377Z,3.30
2022-12-24T09:11:45.492Z,3.40
2022-12-24T09:13:07.626Z,3.40
2022-12-24T09:14:29.725Z,3.40
2022-12-24T09:15:55.558Z,3.40
2022-12-24T09:17:17.913Z,3.50
2022-12-24T09:18:41.056Z,3.50
2022-12-24T09:20:04.670Z,3.50
2022-12-24T09:21:26.894Z,3.60
2022-12-24T09:22:49.169Z,3.60
2022-12-24T09:24:11.260Z,3.60
2022-12-24T09:25:33.406Z,3.60
2022-12-24T09:26:58.021Z,3.70
2022-12-24T09:28:21.008Z,3.70
2022-12-24T09:29:43.057Z,3.70
2022-12-24T09:31:05.920Z,3.80
2022-12-24T09:32:28.063Z,3.80
2022-12-24T09:33:51.293Z,3.80
2022-12-24T09:35:13.371Z,3.80
2022-12-24T09:36:35.783Z,3.80
2022-12-24T09:38:03.677Z,3.90
2022-12-24T09:39:25.799Z,3.90
2022-12-24T09:40:49.166Z,3.90
2022-12-24T09:42:35.410Z,3.90
2022-12-24T09:44:06.198Z,3.90
2022-12-24T09:45:38.393Z,3.90
2022-12-24T09:47:09.907Z,4.00
2022-12-24T09:48:37.158Z,4.00
2022-12-24T09:50:03.192Z,4.00
2022-12-24T09:51:43.862Z,4.00
2022-12-24T09:53:17.928Z,4.00
2022-12-24T09:54:51.489Z,4.10
2022-12-24T09:56:21.058Z,4.10
2022-12-24T09:57:44.529Z,4.10
2022-12-24T09:59:11.717Z,4.10
2022-12-24T10:00:37.497Z,4.20
2022-12-24T10:02:01.031Z,4.20
2022-12-24T10:03:23.509Z,4.20
2022-12-24T10:04:47.077Z,4.20
2022-12-24T10:06:25.107Z,4.20
2022-12-24T10:08:18.719Z,4.20
2022-12-24T10:10:10.301Z,4.20
2022-12-24T10:11:54.033Z,4.30
2022-12-24T10:13:27.995Z,4.30
2022-12-24T10:15:08.109Z,4.30
2022-12-24T10:16:51.676Z,4.30
2022-12-24T10:18:16.675Z,4.20
2022-12-24T10:19:49.845Z,4.20
2022-12-24T10:21:17.925Z,4.20
2022-12-24T10:22:55.478Z,4.20
2022-12-24T10:24:36.426Z,4.20
2022-12-24T10:26:13.608Z,4.20
2022-12-24T10:27:39.850Z,4.20
2022-12-24T10:29:46.211Z,4.30
2022-12-24T10:31:09.755Z,4.30
2022-12-24T10:32:34.681Z,4.30
2022-12-24T10:34:22.311Z,4.40
2022-12-24T10:35:49.007Z,4.40
2022-12-24T10:37:31.709Z,4.50
2022-12-24T10:38:54.042Z,4.50
2022-12-24T10:40:51.066Z,4.50
2022-12-24T10:42:15.093Z,4.50
2022-12-24T10:43:40.019Z,4.50
2022-12-24T10:45:06.858Z,4.50
2022-12-24T10:46:37.798Z,4.50
2022-12-24T10:48:04.130Z,4.50
2022-12-24T10:49:53.212Z,4.50
2022-12-24T10:51:42.151Z,4.50
2022-12-24T10:53:17.745Z,4.50
2022-12-24T10:55:05.864Z,4.50
2022-12-24T10:56:27.958Z,4.60
2022-12-24T10:58:07.476Z,4.60
2022-12-24T10:59:49.180Z,4.60
2022-12-24T11:01:11.448Z,4.60
2022-12-24T11:02:38.984Z,4.60
2022-12-24T11:04:02.260Z,4.60
2022-12-24T11:05:33.689Z,4.70
2022-12-24T11:07:06.015Z,4.70
2022-12-24T11:08:28.135Z,4.70
2022-12-24T11:09:59.476Z,4.70
2022-12-24T11:11:23.409Z,4.80
2022-12-24T11:13:12.787Z,4.90
2022-12-24T11:14:39.967Z,4.90
2022-12-24T11:16:04.199Z,5.00
2022-12-24T11:17:26.399Z,5.00
2022-12-24T11:18:53.949Z,4.90
2022-12-24T11:20:26.578Z,5.00
2022-12-24T11:21:48.768Z,5.00
2022-12-24T11:23:16.663Z,4.90
2022-12-24T11:24:41.554Z,5.00
2022-12-24T11:26:07.376Z,5.00
2022-12-24T11:27:32.203Z,5.00
2022-12-24T11:29:19.504Z,5.00
2022-12-24T11:30:41.664Z,5.10
2022-12-24T11:32:23.507Z,5.10
2022-12-24T11:33:55.676Z,5.10
2022-12-24T11:35:19.406Z,5.20
2022-12-24T11:36:41.483Z,5.20
2022-12-24T11:38:03.487Z,5.20
2022-12-24T11:39:26.303Z,5.20
2022-12-24T11:41:10.819Z,5.10
2022-12-24T11:42:36.936Z,5.10
2022-12-24T11:44:03.725Z,5.10
2022-12-24T11:45:28.720Z,5.00
2022-12-24T11:46:56.585Z,5.00
2022-12-24T11:48:30.795Z,4.90
2022-12-24T11:49:52.826Z,4.90
2022-12-24T11:51:26.808Z,4.90
2022-12-24T11:53:13.104Z,4.80
2022-12-24T11:54:45.618Z,4.80
2022-12-24T11:56:32.216Z,4.80
2022-12-24T11:58:03.387Z,4.80
2022-12-24T11:59:43.024Z,4.80
2022-12-24T12:01:16.819Z,4.80
2022-12-24T12:02:42.685Z,4.80
2022-12-24T12:04:18.341Z,4.80
2022-12-24T12:05:40.534Z,4.80
2022-12-24T12:07:15.268Z,4.80
2022-12-24T12:08:38.541Z,4.90
2022-12-24T12:10:06.770Z,4.90
2022-12-24T12:11:30.107Z,4.90
2022-12-24T12:13:01.988Z,4.90
2022-12-24T12:14:47.127Z,4.90
2022-12-24T12:17:03.644Z,5.00
2022-12-24T12:18:32.603Z,4.90
2022-12-24T12:20:21.144Z,4.90
2022-12-24T12:21:46.675Z,5.00
2022-12-24T12:23:23.554Z,4.90
2022-12-24T12:24:52.882Z,4.90
2022-12-24T12:26:29.599Z,5.00
2022-12-24T12:27:55.533Z,5.00
2022-12-24T12:29:36.028Z,5.00
2022-12-24T12:31:17.001Z,5.00
2022-12-24T12:32:42.459Z,5.00
2022-12-24T12:34:16.947Z,5.00
2022-12-24T12:35:42.302Z,5.00
2022-12-24T12:37:14.618Z,5.00
2022-12-24T12:38:37.460Z,5.00
2022-12-24T12:40:00.829Z,5.00
2022-12-24T12:41:34.956Z,5.00
2022-12-24T12:43:14.817Z,5.00
2022-12-24T12:44:45.409Z,5.00
2022-12-24T12:46:29.354Z,5.00
2022-12-24T12:48:06.417Z,5.00
2022-12-24T12:50:08.150Z,5.00
2022-12-24T12:52:08.408Z,5.00
2022-12-24T12:54:03.131Z,5.00
2022-12-24T12:55:58.540Z,5.10
2022-12-24T12:57:24.658Z,5.10
2022-12-24T12:59:01.387Z,5.10
2022-12-24T13:00:23.672Z,5.10
2022-12-24T13:02:12.586Z,5.10
2022-12-24T13:04:14.972Z,5.10
2022-12-24T13:05:45.685Z,5.10
2022-12-24T13:07:08.180Z,5.10
2022-12-24T13:08:53.439Z,5.10
2022-12-24T13:10:26.095Z,5.10
2022-12-24T13:11:58.429Z,5.10
2022-12-24T13:13:46.508Z,5.10
2022-12-24T13:15:35.961Z,5.10
2022-12-24T13:17:27.329Z,5.00
2022-12-24T13:19:23.113Z,5.00
2022-12-24T13:20:52.347Z,5.00
2022-12-24T13:22:22.910Z,5.00
2022-12-24T13:23:46.838Z,5.00
2022-12-24T13:25:23.510Z,5.00
2022-12-24T13:27:21.709Z,5.00
2022-12-24T13:28:45.683Z,5.00
2022-12-24T13:30:39.775Z,5.00
2022-12-24T13:32:21.887Z,5.00
2022-12-24T13:33:45.372Z,5.10
2022-12-24T13:35:21.107Z,5.10
2022-12-24T13:37:19.759Z,5.10
2022-12-24T13:38:50.745Z,5.10
2022-12-24T13:40:12.873Z,5.10
2022-12-24T13:41:40.538Z,5.10
2022-12-24T13:43:06.999Z,5.10
2022-12-24T13:44:33.152Z,5.10
2022-12-24T13:45:55.703Z,5.10
2022-12-24T13:47:25.357Z,5.10
2022-12-24T13:48:50.673Z,5.10
2022-12-24T13:50:29.732Z,5.10
2022-12-24T13:51:52.514Z,5.00
2022-12-24T13:53:44.322Z,5.00
2022-12-24T13:55:14.524Z,4.90
2022-12-24T13:56:37.269Z,4.90
2022-12-24T13:58:05.982Z,4.90
2022-12-24T13:59:38.938Z,4.80
2022-12-24T14:01:09.839Z,4.80
2022-12-24T14:02:37.501Z,4.70
2022-12-24T14:04:02.829Z,4.70
2022-12-24T14:05:43.204Z,4.70
2022-12-24T14:07:06.004Z,4.60
2022-12-24T14:08:33.798Z,4.60
2022-12-24T14:09:57.579Z,4.60
2022-12-24T14:11:22.420Z,4.50
2022-12-24T14:12:50.395Z,4.50
2022-12-24T14:14:28.325Z,4.50
2022-12-24T14:15:50.713Z,4.50
2022-12-24T14:17:24.527Z,4.40
2022-12-24T14:19:09.191Z,4.40
2022-12-24T14:20:33.423Z,4.30
2022-12-24T14:22:05.124Z,4.30
2022-12-24T14:24:02.099Z,4.30
2022-12-24T14:25:24.630Z,4.30
2022-12-24T14:26:55.740Z,4.30
2022-12-24T14:28:22.568Z,4.40
2022-12-24T14:30:16.345Z,4.30
2022-12-24T14:31:38.459Z,4.30
2022-12-24T14:33:02.061Z,4.20
2022-12-24T14:34:26.317Z,4.20
2022-12-24T14:35:50.470Z,4.20
2022-12-24T14:37:14.950Z,4.10
2022-12-24T14:38:40.759Z,4.10
2022-12-24T14:40:05.382Z,4.10
2022-12-24T14:41:53.166Z,4.00
2022-12-24T14:44:07.234Z,4.00
2022-12-24T14:45:55.278Z,4.00
2022-12-24T14:47:29.675Z,4.00
2022-12-24T14:49:09.482Z,3.90
2022-12-24T14:50:51.266Z,3.90
2022-12-24T14:53:03.431Z,3.90
2022-12-24T14:54:25.810Z,3.90
2022-12-24T14:55:50.114Z,3.80
2022-12-24T14:57:13.568Z,3.80
2022-12-24T14:58:41.319Z,3.80
2022-12-24T15:00:20.369Z,3.80
2022-12-24T15:01:43.239Z,3.80
2022-12-24T15:03:17.935Z,3.80
2022-12-24T15:04:41.343Z,3.80
2022-12-24T15:06:06.548Z,3.80
2022-12-24T15:07:30.945Z,3.80
2022-12-24T15:08:53.755Z,3.80
2022-12-24T15:10:37.843Z,3.80
2022-12-24T15:12:03.410Z,3.80
2022-12-24T15:13:47.559Z,3.80
2022-12-24T15:15:16.010Z,3.80
2022-12-24T15:16:38.237Z,3.80
2022-12-24T15:18:02.122Z,3.80
2022-12-24T15:19:28.510Z,3.80
2022-12-24T15:20:58.656Z,3.80
2022-12-24T15:22:31.362Z,3.80
2022-12-24T15:23:53.520Z,3.70
2022-12-24T15:25:33.845Z,3.70
2022-12-24T15:26:56.453Z,3.70
2022-12-24T15:28:20.389Z,3.70
2022-12-24T15:29:48.232Z,3.70
2022-12-24T15:31:20.177Z,3.70
2022-12-24T15:32:42.366Z,3.70
2022-12-24T15:34:04.747Z,3.70
2022-12-24T15:35:55.365Z,3.70
2022-12-24T15:37:26.820Z,3.70
2022-12-24T15:38:54.412Z,3.70
2022-12-24T15:40:24.299Z,3.70
2022-12-24T15:42:07.654Z,3.70
2022-12-24T15:43:31.675Z,3.70
2022-12-24T15:45:19.101Z,3.70
2022-12-24T15:46:43.764Z,3.70
2022-12-24T15:48:11.424Z,3.70
2022-12-24T15:49:34.349Z,3.70
2022-12-24T15:51:01.126Z,3.70
2022-12-24T15:52:25.321Z,3.70
2022-12-24T15:53:49.278Z,3.70
2022-12-24T15:55:47.908Z,3.80
2022-12-24T15:57:29.591Z,3.80
2022-12-24T15:58:51.648Z,3.80
2022-12-24T16:00:27.404Z,3.80
2022-12-24T16:01:49.958Z,3.80
2022-12-24T16:03:18.795Z,3.80
2022-12-24T16:04:40.869Z,3.80
2022-12-24T16:06:05.108Z,3.80
2022-12-24T16:07:47.438Z,3.80
2022-12-24T16:09:30.145Z,3.80
2022-12-24T16:11:07.473Z,3.80
2022-12-24T16:12:30.243Z,3.80
2022-12-24T16:13:52.235Z,3.80
2022-12-24T16:15:15.602Z,3.80
2022-12-24T16:16:48.690Z,3.80
2022-12-24T16:18:19.774Z,3.80
2022-12-24T16:19:46.571Z,3.80
2022-12-24T16:21:09.338Z,3.80
2022-12-24T16:22:32.867Z,3.80
2022-12-24T16:23:57.330Z,3.80
2022-12-24T16:25:26.732Z,3.80
2022-12-24T16:26:49.115Z,3.80
2022-12-24T16:28:16.149Z,3.80
2022-12-24T16:29:42.380Z,3.80
2022-12-24T16:31:04.870Z,3.80
2022-12-24T16:32:33.712Z,3.80
2022-12-24T16:33:58.207Z,3.80
2022-12-24T16:35:27.898Z,3.80
2022-12-24T16:36:50.443Z,3.80
2022-12-24T16:38:14.497Z,3.70
2022-12-24T16:39:36.799Z,3.80
2022-12-24T16:40:58.915Z,3.80
2022-12-24T16:42:39.654Z,3.80
2022-12-24T16:44:01.841Z,3.80
2022-12-24T16:45:24.170Z,3.80
2022-12-24T16:46:46.424Z,3.80
2022-12-24T16:48:09.037Z,3.80
2022-12-24T16:49:31.207Z,3.80
2022-12-24T16:50:53.903Z,3.80
2022-12-24T16:52:21.504Z,3.80
2022-12-24T16:53:43.693Z,3.80
2022-12-24T16:55:06.131Z,3.80
2022-12-24T16:56:28.544Z,3.80
2022-12-24T16:57:50.829Z,3.80
2022-12-24T16:59:18.296Z,3.90
2022-12-24T17:00:41.453Z,3.90
2022-12-24T17:02:07.865Z,3.90
2022-12-24T17:03:33.105Z,3.90
2022-12-24T17:04:55.329Z,3.90
2022-12-24T17:06:17.485Z,3.90
2022-12-24T17:07:43.589Z,3.90
2022-12-24T17:09:07.694Z,3.90
2022-12-24T17:10:29.908Z,3.90
2022-12-24T17:11:52.085Z,3.90
2022-12-24T17:13:14.188Z,3.90
2022-12-24T17:14:37.751Z,4.00
2022-12-24T17:16:02.166Z,4.00
2022-12-24T17:17:29.705Z,4.00
2022-12-24T17:18:52.141Z,4.00
2022-12-24T17:20:18.975Z,4.00
2022-12-24T17:21:45.586Z,4.00
2022-12-24T17:23:07.664Z,4.00
2022-12-24T17:24:29.705Z,3.60
2022-12-24T17:25:51.796Z,4.00
2022-12-24T17:27:14.186Z,4.00
2022-12-24T17:28:36.710Z,4.00
2022-12-24T17:29:58.939Z,4.00
2022-12-24T17:31:21.996Z,4.00
2022-12-24T17:32:44.259Z,4.00
2022-12-24T17:34:06.710Z,4.00
2022-12-24T17:35:28.770Z,4.00
2022-12-24T17:36:50.892Z,3.90
2022-12-24T17:38:12.955Z,3.90
2022-12-24T17:39:34.973Z,3.90
2022-12-24T17:41:08.609Z,3.90
2022-12-24T17:42:30.830Z,3.90
2022-12-24T17:43:52.889Z,3.90
2022-12-24T17:45:15.005Z,3.90
2022-12-24T17:46:37.183Z,3.90
2022-12-24T17:47:59.287Z,3.90
2022-12-24T17:49:21.564Z,3.90
2022-12-24T17:50:43.651Z,3.90
2022-12-24T17:52:05.876Z,3.90
2022-12-24T17:53:28.041Z,3.90
2022-12-24T17:54:50.193Z,3.90
2022-12-24T17:56:14.245Z,3.90
2022-12-24T17:57:36.475Z,3.90
2022-12-24T17:58:58.598Z,3.30
2022-12-24T18:00:20.863Z,4.00
2022-12-24T18:01:43.102Z,4.00
2022-12-24T18:03:05.763Z,4.00
2022-12-24T18:04:27.985Z,4.00
2022-12-24T18:05:50.663Z,4.00
2022-12-24T18:07:13.079Z,4.00
2022-12-24T18:08:35.907Z,4.00
2022-12-24T18:11:00.454Z,4.00
2022-12-24T18:12:22.517Z,4.00
2022-12-24T18:13:45.458Z,4.00
2022-12-24T18:15:07.992Z,4.00
2022-12-24T18:16:36.201Z,4.00
2022-12-24T18:17:59.284Z,4.00
2022-12-24T18:19:21.527Z,4.00
2022-12-24T18:20:46.893Z,4.00
2022-12-24T18:22:09.181Z,4.00
2022-12-24T18:23:31.297Z,4.00
2022-12-24T18:24:53.382Z,4.00
2022-12-24T18:26:16.735Z,4.00
2022-12-24T18:27:38.969Z,4.00
2022-12-24T18:29:04.561Z,4.00
2022-12-24T18:30:27.999Z,4.00
2022-12-24T18:31:50.738Z,4.00
2022-12-24T18:33:12.840Z,4.00
2022-12-24T18:34:35.032Z,4.00
2022-12-24T18:35:57.207Z,4.00
2022-12-24T18:37:19.459Z,4.00
2022-12-24T18:38:41.735Z,4.10
2022-12-24T18:40:04.731Z,4.00
2022-12-24T18:41:29.557Z,4.00
2022-12-24T18:42:51.610Z,4.00
2022-12-24T18:44:14.644Z,4.00
2022-12-24T18:45:41.709Z,4.10
2022-12-24T18:47:03.867Z,4.10
2022-12-24T18:48:26.528Z,4.10
2022-12-24T18:49:48.640Z,4.10
2022-12-24T18:51:11.175Z,4.00
2022-12-24T18:52:34.555Z,4.00
2022-12-24T18:53:56.696Z,4.00
2022-12-24T18:55:18.831Z,4.00
2022-12-24T18:56:41.006Z,4.00
2022-12-24T18:58:03.612Z,3.90
2022-12-24T18:59:25.738Z,3.90
2022-12-24T19:00:48.232Z,3.90
2022-12-24T19:02:11.028Z,3.90
2022-12-24T19:03:33.570Z,3.90
2022-12-24T19:04:56.139Z,3.90
2022-12-24T19:06:21.848Z,3.90
2022-12-24T19:07:48.189Z,3.90
2022-12-24T19:09:12.785Z,3.90
2022-12-24T19:10:39.133Z,3.90
2022-12-24T19:12:04.171Z,3.90
2022-12-24T19:13:28.999Z,4.00
2022-12-24T19:14:52.868Z,4.00
2022-12-24T19:16:16.060Z,4.00
2022-12-24T19:17:38.153Z,4.00
2022-12-24T19:19:01.217Z,4.00